sensor_id;sensor_type;location;lat;lon;timestamp;P1;durP1;ratioP1;P2;durP2;ratioP2
76208;SDS011;64990;51.698;-0.292;2023-05-07T00:00:37;33.05;;;13.63;;
76208;SDS011;64990;51.698;-0.292;2023-05-07T00:03:03;43.22;;;14.10;;
76208;SDS011;64990;51.698;-0.292;2023-05-07T00:05:29;29.77;;;15.00;;
76208;SDS011;64990;51.698;-0.292;2023-05-07T00:07:55;50.90;;;16.92;;
76208;SDS011;64990;51.698;-0.292;2023-05-07T00:10:21;37.03;;;14.80;;
76208;SDS011;64990;51.698;-0.292;2023-05-07T00:12:47;29.25;;;15.05;;
76208;SDS011;64990;51.698;-0.292;2023-05-07T00:15:13;50.22;;;18.08;;
76208;SDS011;64990;51.698;-0.292;2023-05-07T00:17:39;41.22;;;15.93;;
76208;SDS011;64990;51.698;-0.292;2023-05-07T00:20:05;44.42;;;15.68;;
76208;SDS011;64990;51.698;-0.292;2023-05-07T00:22:31;29.63;;;14.43;;
76208;SDS011;64990;51.698;-0.292;2023-05-07T00:24:58;47.10;;;17.20;;
76208;SDS011;64990;51.698;-0.292;2023-05-07T00:27:24;44.60;;;19.15;;
76208;SDS011;64990;51.698;-0.292;2023-05-07T00:29:50;49.97;;;16.73;;
76208;SDS011;64990;51.698;-0.292;2023-05-07T00:32:16;54.20;;;17.38;;
76208;SDS011;64990;51.698;-0.292;2023-05-07T00:34:42;46.60;;;15.40;;
76208;SDS011;64990;51.698;-0.292;2023-05-07T00:37:08;56.00;;;17.85;;
76208;SDS011;64990;51.698;-0.292;2023-05-07T00:39:34;44.97;;;16.75;;
76208;SDS011;64990;51.698;-0.292;2023-05-07T00:42:01;36.17;;;15.13;;
76208;SDS011;64990;51.698;-0.292;2023-05-07T00:44:27;37.83;;;14.82;;
76208;SDS011;64990;51.698;-0.292;2023-05-07T00:46:54;36.38;;;14.90;;
76208;SDS011;64990;51.698;-0.292;2023-05-07T00:49:21;29.30;;;14.85;;
76208;SDS011;64990;51.698;-0.292;2023-05-07T00:51:47;50.75;;;15.40;;
76208;SDS011;64990;51.698;-0.292;2023-05-07T00:54:13;32.50;;;13.27;;
76208;SDS011;64990;51.698;-0.292;2023-05-07T00:56:39;90.18;;;17.25;;
76208;SDS011;64990;51.698;-0.292;2023-05-07T00:59:05;31.80;;;12.10;;
76208;SDS011;64990;51.698;-0.292;2023-05-07T01:01:31;34.40;;;14.30;;
76208;SDS011;64990;51.698;-0.292;2023-05-07T01:03:57;29.90;;;12.25;;
76208;SDS011;64990;51.698;-0.292;2023-05-07T01:06:24;32.20;;;14.27;;
76208;SDS011;64990;51.698;-0.292;2023-05-07T01:08:51;23.55;;;13.77;;
76208;SDS011;64990;51.698;-0.292;2023-05-07T01:11:18;30.80;;;13.55;;
76208;SDS011;64990;51.698;-0.292;2023-05-07T01:13:45;37.30;;;14.15;;
76208;SDS011;64990;51.698;-0.292;2023-05-07T01:16:12;29.98;;;14.10;;
76208;SDS011;64990;51.698;-0.292;2023-05-07T01:18:38;28.73;;;14.07;;
76208;SDS011;64990;51.698;-0.292;2023-05-07T01:21:04;30.05;;;14.35;;
76208;SDS011;64990;51.698;-0.292;2023-05-07T01:23:30;34.80;;;16.65;;
76208;SDS011;64990;51.698;-0.292;2023-05-07T01:25:57;30.05;;;15.50;;
76208;SDS011;64990;51.698;-0.292;2023-05-07T01:28:23;56.83;;;18.00;;
76208;SDS011;64990;51.698;-0.292;2023-05-07T01:30:51;28.30;;;14.80;;
76208;SDS011;64990;51.698;-0.292;2023-05-07T01:33:19;31.83;;;14.15;;
76208;SDS011;64990;51.698;-0.292;2023-05-07T01:35:47;28.13;;;14.57;;
76208;SDS011;64990;51.698;-0.292;2023-05-07T01:38:14;33.47;;;15.40;;
76208;SDS011;64990;51.698;-0.292;2023-05-07T01:40:40;34.30;;;14.88;;
76208;SDS011;64990;51.698;-0.292;2023-05-07T01:43:07;33.78;;;15.27;;
76208;SDS011;64990;51.698;-0.292;2023-05-07T01:45:33;51.58;;;17.88;;
76208;SDS011;64990;51.698;-0.292;2023-05-07T01:47:59;31.52;;;15.50;;
76208;SDS011;64990;51.698;-0.292;2023-05-07T01:50:26;40.20;;;17.42;;
76208;SDS011;64990;51.698;-0.292;2023-05-07T01:52:52;31.08;;;15.15;;
76208;SDS011;64990;51.698;-0.292;2023-05-07T01:55:19;28.60;;;15.27;;
76208;SDS011;64990;51.698;-0.292;2023-05-07T01:57:44;51.38;;;15.10;;
76208;SDS011;64990;51.698;-0.292;2023-05-07T02:00:11;40.50;;;16.50;;
76208;SDS011;64990;51.698;-0.292;2023-05-07T02:02:37;33.38;;;17.00;;
76208;SDS011;64990;51.698;-0.292;2023-05-07T02:05:03;38.13;;;15.45;;
76208;SDS011;64990;51.698;-0.292;2023-05-07T02:07:29;55.47;;;16.85;;
76208;SDS011;64990;51.698;-0.292;2023-05-07T02:09:55;33.17;;;15.13;;
76208;SDS011;64990;51.698;-0.292;2023-05-07T02:12:21;40.83;;;15.95;;
76208;SDS011;64990;51.698;-0.292;2023-05-07T02:14:48;39.20;;;16.42;;
76208;SDS011;64990;51.698;-0.292;2023-05-07T02:17:14;45.28;;;16.33;;
76208;SDS011;64990;51.698;-0.292;2023-05-07T02:19:40;38.17;;;16.40;;
76208;SDS011;64990;51.698;-0.292;2023-05-07T02:22:06;41.88;;;16.00;;
76208;SDS011;64990;51.698;-0.292;2023-05-07T02:24:32;46.85;;;18.27;;
76208;SDS011;64990;51.698;-0.292;2023-05-07T02:26:58;35.83;;;14.85;;
76208;SDS011;64990;51.698;-0.292;2023-05-07T02:29:25;44.65;;;16.45;;
76208;SDS011;64990;51.698;-0.292;2023-05-07T02:31:51;40.08;;;17.75;;
76208;SDS011;64990;51.698;-0.292;2023-05-07T02:34:18;44.55;;;15.68;;
76208;SDS011;64990;51.698;-0.292;2023-05-07T02:36:44;33.22;;;16.60;;
76208;SDS011;64990;51.698;-0.292;2023-05-07T02:39:10;29.80;;;16.25;;
76208;SDS011;64990;51.698;-0.292;2023-05-07T02:41:36;48.10;;;17.55;;
76208;SDS011;64990;51.698;-0.292;2023-05-07T02:44:02;44.80;;;15.90;;
76208;SDS011;64990;51.698;-0.292;2023-05-07T02:46:28;40.80;;;15.65;;
76208;SDS011;64990;51.698;-0.292;2023-05-07T02:48:54;33.22;;;16.02;;
76208;SDS011;64990;51.698;-0.292;2023-05-07T02:51:21;61.22;;;14.30;;
76208;SDS011;64990;51.698;-0.292;2023-05-07T02:53:47;62.47;;;18.65;;
76208;SDS011;64990;51.698;-0.292;2023-05-07T02:56:13;71.70;;;15.77;;
76208;SDS011;64990;51.698;-0.292;2023-05-07T02:58:40;58.63;;;15.68;;
76208;SDS011;64990;51.698;-0.292;2023-05-07T03:01:07;61.50;;;17.48;;
76208;SDS011;64990;51.698;-0.292;2023-05-07T03:03:33;34.15;;;14.23;;
76208;SDS011;64990;51.698;-0.292;2023-05-07T03:05:59;34.78;;;14.48;;
76208;SDS011;64990;51.698;-0.292;2023-05-07T03:08:26;74.05;;;17.23;;
76208;SDS011;64990;51.698;-0.292;2023-05-07T03:10:52;58.60;;;17.30;;
76208;SDS011;64990;51.698;-0.292;2023-05-07T03:13:18;59.78;;;15.57;;
76208;SDS011;64990;51.698;-0.292;2023-05-07T03:15:44;43.40;;;16.02;;
76208;SDS011;64990;51.698;-0.292;2023-05-07T03:18:10;43.10;;;16.17;;
76208;SDS011;64990;51.698;-0.292;2023-05-07T03:20:36;37.35;;;17.42;;
76208;SDS011;64990;51.698;-0.292;2023-05-07T03:23:02;53.13;;;18.88;;
76208;SDS011;64990;51.698;-0.292;2023-05-07T03:25:28;41.88;;;15.63;;
76208;SDS011;64990;51.698;-0.292;2023-05-07T03:27:57;44.95;;;14.07;;
76208;SDS011;64990;51.698;-0.292;2023-05-07T03:30:23;43.97;;;16.17;;
76208;SDS011;64990;51.698;-0.292;2023-05-07T03:32:49;46.90;;;15.73;;
76208;SDS011;64990;51.698;-0.292;2023-05-07T03:35:15;39.15;;;13.75;;
76208;SDS011;64990;51.698;-0.292;2023-05-07T03:37:41;52.17;;;15.80;;
76208;SDS011;64990;51.698;-0.292;2023-05-07T03:40:08;44.90;;;14.00;;
76208;SDS011;64990;51.698;-0.292;2023-05-07T03:42:35;82.95;;;16.27;;
76208;SDS011;64990;51.698;-0.292;2023-05-07T03:45:01;51.50;;;14.68;;
76208;SDS011;64990;51.698;-0.292;2023-05-07T03:47:27;40.97;;;15.63;;
76208;SDS011;64990;51.698;-0.292;2023-05-07T03:49:53;49.65;;;14.75;;
76208;SDS011;64990;51.698;-0.292;2023-05-07T03:52:19;37.63;;;13.13;;
76208;SDS011;64990;51.698;-0.292;2023-05-07T03:54:49;44.45;;;14.25;;
76208;SDS011;64990;51.698;-0.292;2023-05-07T03:57:15;35.13;;;14.27;;
76208;SDS011;64990;51.698;-0.292;2023-05-07T03:59:41;52.95;;;15.10;;
76208;SDS011;64990;51.698;-0.292;2023-05-07T04:02:07;30.73;;;13.77;;
76208;SDS011;64990;51.698;-0.292;2023-05-07T04:04:33;56.88;;;14.70;;
76208;SDS011;64990;51.698;-0.292;2023-05-07T04:06:59;43.65;;;15.60;;
76208;SDS011;64990;51.698;-0.292;2023-05-07T04:09:25;45.58;;;13.70;;
76208;SDS011;64990;51.698;-0.292;2023-05-07T04:11:51;39.88;;;12.80;;
76208;SDS011;64990;51.698;-0.292;2023-05-07T04:14:17;46.58;;;14.38;;
76208;SDS011;64990;51.698;-0.292;2023-05-07T04:16:43;53.83;;;14.23;;
76208;SDS011;64990;51.698;-0.292;2023-05-07T04:19:09;39.00;;;12.68;;
76208;SDS011;64990;51.698;-0.292;2023-05-07T04:21:35;43.30;;;13.30;;
76208;SDS011;64990;51.698;-0.292;2023-05-07T04:24:02;55.63;;;13.80;;
76208;SDS011;64990;51.698;-0.292;2023-05-07T04:26:28;33.92;;;10.80;;
76208;SDS011;64990;51.698;-0.292;2023-05-07T04:28:55;27.42;;;11.05;;
76208;SDS011;64990;51.698;-0.292;2023-05-07T04:31:22;28.27;;;11.20;;
76208;SDS011;64990;51.698;-0.292;2023-05-07T04:33:48;39.92;;;12.38;;
76208;SDS011;64990;51.698;-0.292;2023-05-07T04:36:15;45.15;;;11.63;;
76208;SDS011;64990;51.698;-0.292;2023-05-07T04:38:41;49.97;;;12.70;;
76208;SDS011;64990;51.698;-0.292;2023-05-07T04:41:08;58.90;;;12.20;;
76208;SDS011;64990;51.698;-0.292;2023-05-07T04:43:34;55.15;;;13.50;;
76208;SDS011;64990;51.698;-0.292;2023-05-07T04:46:00;45.75;;;12.77;;
76208;SDS011;64990;51.698;-0.292;2023-05-07T04:48:26;46.90;;;11.23;;
76208;SDS011;64990;51.698;-0.292;2023-05-07T04:50:53;24.75;;;11.38;;
76208;SDS011;64990;51.698;-0.292;2023-05-07T04:53:20;25.50;;;9.88;;
76208;SDS011;64990;51.698;-0.292;2023-05-07T04:55:46;32.15;;;11.70;;
76208;SDS011;64990;51.698;-0.292;2023-05-07T04:58:12;25.77;;;10.20;;
76208;SDS011;64990;51.698;-0.292;2023-05-07T05:00:39;54.60;;;12.25;;
76208;SDS011;64990;51.698;-0.292;2023-05-07T05:03:06;35.47;;;11.77;;
76208;SDS011;64990;51.698;-0.292;2023-05-07T05:05:32;38.83;;;12.05;;
76208;SDS011;64990;51.698;-0.292;2023-05-07T05:07:58;27.75;;;10.07;;
76208;SDS011;64990;51.698;-0.292;2023-05-07T05:10:24;42.95;;;12.93;;
76208;SDS011;64990;51.698;-0.292;2023-05-07T05:12:50;35.47;;;11.65;;
76208;SDS011;64990;51.698;-0.292;2023-05-07T05:15:16;33.60;;;11.85;;
76208;SDS011;64990;51.698;-0.292;2023-05-07T05:17:42;29.17;;;9.60;;
76208;SDS011;64990;51.698;-0.292;2023-05-07T05:20:09;34.75;;;12.43;;
76208;SDS011;64990;51.698;-0.292;2023-05-07T05:22:36;40.10;;;11.63;;
76208;SDS011;64990;51.698;-0.292;2023-05-07T05:25:02;24.10;;;10.30;;
76208;SDS011;64990;51.698;-0.292;2023-05-07T05:27:28;36.83;;;11.00;;
76208;SDS011;64990;51.698;-0.292;2023-05-07T05:29:55;58.55;;;11.32;;
76208;SDS011;64990;51.698;-0.292;2023-05-07T05:32:21;32.08;;;10.43;;
76208;SDS011;64990;51.698;-0.292;2023-05-07T05:34:47;32.70;;;11.73;;
76208;SDS011;64990;51.698;-0.292;2023-05-07T05:37:13;31.40;;;12.45;;
76208;SDS011;64990;51.698;-0.292;2023-05-07T05:39:39;25.25;;;12.30;;
76208;SDS011;64990;51.698;-0.292;2023-05-07T05:42:06;29.23;;;11.23;;
76208;SDS011;64990;51.698;-0.292;2023-05-07T05:44:32;39.55;;;12.20;;
76208;SDS011;64990;51.698;-0.292;2023-05-07T05:46:58;25.63;;;9.73;;
76208;SDS011;64990;51.698;-0.292;2023-05-07T05:49:24;29.52;;;11.18;;
76208;SDS011;64990;51.698;-0.292;2023-05-07T05:51:50;45.47;;;12.05;;
76208;SDS011;64990;51.698;-0.292;2023-05-07T05:54:16;33.38;;;12.55;;
76208;SDS011;64990;51.698;-0.292;2023-05-07T05:56:42;23.90;;;11.35;;
76208;SDS011;64990;51.698;-0.292;2023-05-07T05:59:09;52.25;;;12.95;;
76208;SDS011;64990;51.698;-0.292;2023-05-07T06:01:35;28.50;;;10.52;;
76208;SDS011;64990;51.698;-0.292;2023-05-07T06:04:01;35.08;;;12.23;;
76208;SDS011;64990;51.698;-0.292;2023-05-07T06:06:27;32.30;;;10.90;;
76208;SDS011;64990;51.698;-0.292;2023-05-07T06:08:53;28.73;;;11.63;;
76208;SDS011;64990;51.698;-0.292;2023-05-07T06:11:19;23.75;;;10.40;;
76208;SDS011;64990;51.698;-0.292;2023-05-07T06:13:45;21.77;;;10.38;;
76208;SDS011;64990;51.698;-0.292;2023-05-07T06:16:11;29.70;;;11.10;;
76208;SDS011;64990;51.698;-0.292;2023-05-07T06:18:37;23.92;;;9.90;;
76208;SDS011;64990;51.698;-0.292;2023-05-07T06:21:03;20.33;;;10.18;;
76208;SDS011;64990;51.698;-0.292;2023-05-07T06:23:29;18.35;;;10.38;;
76208;SDS011;64990;51.698;-0.292;2023-05-07T06:25:55;23.95;;;11.48;;
76208;SDS011;64990;51.698;-0.292;2023-05-07T06:28:21;21.27;;;8.85;;
76208;SDS011;64990;51.698;-0.292;2023-05-07T06:30:47;27.27;;;11.25;;
76208;SDS011;64990;51.698;-0.292;2023-05-07T06:33:15;22.27;;;9.45;;
76208;SDS011;64990;51.698;-0.292;2023-05-07T06:35:41;19.67;;;9.02;;
76208;SDS011;64990;51.698;-0.292;2023-05-07T06:38:07;19.38;;;9.52;;
76208;SDS011;64990;51.698;-0.292;2023-05-07T06:40:33;21.00;;;10.20;;
76208;SDS011;64990;51.698;-0.292;2023-05-07T06:42:58;17.92;;;9.90;;
76208;SDS011;64990;51.698;-0.292;2023-05-07T06:45:25;21.05;;;9.38;;
76208;SDS011;64990;51.698;-0.292;2023-05-07T06:47:51;20.50;;;9.00;;
76208;SDS011;64990;51.698;-0.292;2023-05-07T06:50:17;17.98;;;8.55;;
76208;SDS011;64990;51.698;-0.292;2023-05-07T06:52:43;12.73;;;7.72;;
76208;SDS011;64990;51.698;-0.292;2023-05-07T06:55:09;14.88;;;7.57;;
76208;SDS011;64990;51.698;-0.292;2023-05-07T06:57:36;13.35;;;7.85;;
76208;SDS011;64990;51.698;-0.292;2023-05-07T07:00:02;15.07;;;7.40;;
76208;SDS011;64990;51.698;-0.292;2023-05-07T07:02:29;21.08;;;9.95;;
76208;SDS011;64990;51.698;-0.292;2023-05-07T07:04:55;12.95;;;7.68;;
76208;SDS011;64990;51.698;-0.292;2023-05-07T07:07:21;15.75;;;8.27;;
76208;SDS011;64990;51.698;-0.292;2023-05-07T07:09:47;14.60;;;8.10;;
76208;SDS011;64990;51.698;-0.292;2023-05-07T07:12:13;21.92;;;8.90;;
76208;SDS011;64990;51.698;-0.292;2023-05-07T07:14:39;20.05;;;9.25;;
76208;SDS011;64990;51.698;-0.292;2023-05-07T07:17:05;17.55;;;8.50;;
76208;SDS011;64990;51.698;-0.292;2023-05-07T07:19:31;13.13;;;7.22;;
76208;SDS011;64990;51.698;-0.292;2023-05-07T07:21:57;20.00;;;8.90;;
76208;SDS011;64990;51.698;-0.292;2023-05-07T07:24:23;13.05;;;7.30;;
76208;SDS011;64990;51.698;-0.292;2023-05-07T07:26:49;19.65;;;8.02;;
76208;SDS011;64990;51.698;-0.292;2023-05-07T07:29:15;15.70;;;7.82;;
76208;SDS011;64990;51.698;-0.292;2023-05-07T07:31:43;12.95;;;7.38;;
76208;SDS011;64990;51.698;-0.292;2023-05-07T07:34:09;15.80;;;8.13;;
76208;SDS011;64990;51.698;-0.292;2023-05-07T07:36:35;14.60;;;6.78;;
76208;SDS011;64990;51.698;-0.292;2023-05-07T07:39:01;14.90;;;7.60;;
76208;SDS011;64990;51.698;-0.292;2023-05-07T07:41:27;18.67;;;8.55;;
76208;SDS011;64990;51.698;-0.292;2023-05-07T07:43:53;13.88;;;6.80;;
76208;SDS011;64990;51.698;-0.292;2023-05-07T07:46:19;13.40;;;7.90;;
76208;SDS011;64990;51.698;-0.292;2023-05-07T07:48:45;12.73;;;7.88;;
76208;SDS011;64990;51.698;-0.292;2023-05-07T07:51:11;18.17;;;8.68;;
76208;SDS011;64990;51.698;-0.292;2023-05-07T07:53:37;15.55;;;7.43;;
76208;SDS011;64990;51.698;-0.292;2023-05-07T07:56:03;15.05;;;7.55;;
76208;SDS011;64990;51.698;-0.292;2023-05-07T07:58:29;18.63;;;7.90;;
76208;SDS011;64990;51.698;-0.292;2023-05-07T08:00:55;12.00;;;7.13;;
76208;SDS011;64990;51.698;-0.292;2023-05-07T08:03:21;15.60;;;8.02;;
76208;SDS011;64990;51.698;-0.292;2023-05-07T08:05:47;15.68;;;7.50;;
76208;SDS011;64990;51.698;-0.292;2023-05-07T08:08:16;15.20;;;8.70;;
76208;SDS011;64990;51.698;-0.292;2023-05-07T08:10:42;12.65;;;7.35;;
76208;SDS011;64990;51.698;-0.292;2023-05-07T08:13:08;16.85;;;8.35;;
76208;SDS011;64990;51.698;-0.292;2023-05-07T08:15:34;14.63;;;7.15;;
76208;SDS011;64990;51.698;-0.292;2023-05-07T08:18:01;11.60;;;8.23;;
76208;SDS011;64990;51.698;-0.292;2023-05-07T08:20:28;13.52;;;7.78;;
76208;SDS011;64990;51.698;-0.292;2023-05-07T08:22:54;17.45;;;8.30;;
76208;SDS011;64990;51.698;-0.292;2023-05-07T08:25:20;16.48;;;7.93;;
76208;SDS011;64990;51.698;-0.292;2023-05-07T08:27:46;16.48;;;8.18;;
76208;SDS011;64990;51.698;-0.292;2023-05-07T08:30:12;15.98;;;8.45;;
76208;SDS011;64990;51.698;-0.292;2023-05-07T08:32:39;11.50;;;7.78;;
76208;SDS011;64990;51.698;-0.292;2023-05-07T08:35:05;10.73;;;7.13;;
76208;SDS011;64990;51.698;-0.292;2023-05-07T08:37:31;14.18;;;7.35;;
76208;SDS011;64990;51.698;-0.292;2023-05-07T08:39:57;11.82;;;7.55;;
76208;SDS011;64990;51.698;-0.292;2023-05-07T08:42:23;20.02;;;8.45;;
76208;SDS011;64990;51.698;-0.292;2023-05-07T08:44:50;19.00;;;8.60;;
76208;SDS011;64990;51.698;-0.292;2023-05-07T08:47:20;21.02;;;7.35;;
76208;SDS011;64990;51.698;-0.292;2023-05-07T08:49:48;14.30;;;7.45;;
76208;SDS011;64990;51.698;-0.292;2023-05-07T08:52:15;13.30;;;8.35;;
76208;SDS011;64990;51.698;-0.292;2023-05-07T08:54:41;11.18;;;6.57;;
76208;SDS011;64990;51.698;-0.292;2023-05-07T08:57:07;12.55;;;8.48;;
76208;SDS011;64990;51.698;-0.292;2023-05-07T08:59:33;14.48;;;7.28;;
76208;SDS011;64990;51.698;-0.292;2023-05-07T09:02:00;12.27;;;6.38;;
76208;SDS011;64990;51.698;-0.292;2023-05-07T09:04:27;13.32;;;7.05;;
76208;SDS011;64990;51.698;-0.292;2023-05-07T09:06:53;11.38;;;6.15;;
76208;SDS011;64990;51.698;-0.292;2023-05-07T09:09:19;9.32;;;6.18;;
76208;SDS011;64990;51.698;-0.292;2023-05-07T09:11:47;8.98;;;5.72;;
76208;SDS011;64990;51.698;-0.292;2023-05-07T09:14:13;13.07;;;5.95;;
76208;SDS011;64990;51.698;-0.292;2023-05-07T09:16:39;6.97;;;5.00;;
76208;SDS011;64990;51.698;-0.292;2023-05-07T09:19:05;7.00;;;4.97;;
76208;SDS011;64990;51.698;-0.292;2023-05-07T09:21:31;6.97;;;5.30;;
76208;SDS011;64990;51.698;-0.292;2023-05-07T09:23:57;6.28;;;4.60;;
76208;SDS011;64990;51.698;-0.292;2023-05-07T09:26:23;12.27;;;5.90;;
76208;SDS011;64990;51.698;-0.292;2023-05-07T09:28:50;12.40;;;5.38;;
76208;SDS011;64990;51.698;-0.292;2023-05-07T09:31:16;6.95;;;4.90;;
76208;SDS011;64990;51.698;-0.292;2023-05-07T09:33:42;9.15;;;4.60;;
76208;SDS011;64990;51.698;-0.292;2023-05-07T09:36:08;7.68;;;5.25;;
76208;SDS011;64990;51.698;-0.292;2023-05-07T09:38:35;6.35;;;4.57;;
76208;SDS011;64990;51.698;-0.292;2023-05-07T09:41:02;6.75;;;5.15;;
76208;SDS011;64990;51.698;-0.292;2023-05-07T09:43:31;8.95;;;5.18;;
76208;SDS011;64990;51.698;-0.292;2023-05-07T09:45:58;12.15;;;5.65;;
76208;SDS011;64990;51.698;-0.292;2023-05-07T09:48:25;11.75;;;5.90;;
76208;SDS011;64990;51.698;-0.292;2023-05-07T09:50:51;5.53;;;4.20;;
76208;SDS011;64990;51.698;-0.292;2023-05-07T09:53:23;9.30;;;5.20;;
76208;SDS011;64990;51.698;-0.292;2023-05-07T09:55:49;5.18;;;4.00;;
76208;SDS011;64990;51.698;-0.292;2023-05-07T09:58:16;5.22;;;3.63;;
76208;SDS011;64990;51.698;-0.292;2023-05-07T10:00:44;5.03;;;4.03;;
76208;SDS011;64990;51.698;-0.292;2023-05-07T10:03:11;12.23;;;4.55;;
76208;SDS011;64990;51.698;-0.292;2023-05-07T10:05:39;6.20;;;3.70;;
76208;SDS011;64990;51.698;-0.292;2023-05-07T10:08:05;8.88;;;4.32;;
76208;SDS011;64990;51.698;-0.292;2023-05-07T10:10:32;5.53;;;4.38;;
76208;SDS011;64990;51.698;-0.292;2023-05-07T10:12:59;8.85;;;4.43;;
76208;SDS011;64990;51.698;-0.292;2023-05-07T10:15:26;4.65;;;3.83;;
76208;SDS011;64990;51.698;-0.292;2023-05-07T10:17:52;9.00;;;4.05;;
76208;SDS011;64990;51.698;-0.292;2023-05-07T10:20:19;10.70;;;4.60;;
76208;SDS011;64990;51.698;-0.292;2023-05-07T10:22:45;6.15;;;3.78;;
76208;SDS011;64990;51.698;-0.292;2023-05-07T10:25:31;8.27;;;3.90;;
76208;SDS011;64990;51.698;-0.292;2023-05-07T10:27:59;3.58;;;3.08;;
76208;SDS011;64990;51.698;-0.292;2023-05-07T10:30:30;4.75;;;3.42;;
76208;SDS011;64990;51.698;-0.292;2023-05-07T10:32:59;3.70;;;3.25;;
76208;SDS011;64990;51.698;-0.292;2023-05-07T10:35:30;3.78;;;3.08;;
76208;SDS011;64990;51.698;-0.292;2023-05-07T10:37:57;3.42;;;2.20;;
76208;SDS011;64990;51.698;-0.292;2023-05-07T10:40:23;12.68;;;2.97;;
76208;SDS011;64990;51.698;-0.292;2023-05-07T10:43:11;10.90;;;2.45;;
76208;SDS011;64990;51.698;-0.292;2023-05-07T10:45:36;9.32;;;3.80;;
76208;SDS011;64990;51.698;-0.292;2023-05-07T10:55:46;6.38;;;3.05;;
76208;SDS011;64990;51.698;-0.292;2023-05-07T11:00:48;4.88;;;3.88;;
76208;SDS011;64990;51.698;-0.292;2023-05-07T11:03:14;14.88;;;4.10;;
76208;SDS011;64990;51.698;-0.292;2023-05-07T11:05:41;7.35;;;4.72;;
76208;SDS011;64990;51.698;-0.292;2023-05-07T11:08:07;7.28;;;4.47;;
76208;SDS011;64990;51.698;-0.292;2023-05-07T11:10:49;8.40;;;3.38;;
76208;SDS011;64990;51.698;-0.292;2023-05-07T11:13:16;6.65;;;4.53;;
76208;SDS011;64990;51.698;-0.292;2023-05-07T11:15:47;6.18;;;4.40;;
76208;SDS011;64990;51.698;-0.292;2023-05-07T11:18:14;7.35;;;4.75;;
76208;SDS011;64990;51.698;-0.292;2023-05-07T11:26:06;5.95;;;3.97;;
76208;SDS011;64990;51.698;-0.292;2023-05-07T11:28:39;7.18;;;4.15;;
76208;SDS011;64990;51.698;-0.292;2023-05-07T11:31:05;10.93;;;3.83;;
76208;SDS011;64990;51.698;-0.292;2023-05-07T11:33:32;5.22;;;4.20;;
76208;SDS011;64990;51.698;-0.292;2023-05-07T11:35:59;5.78;;;3.05;;
76208;SDS011;64990;51.698;-0.292;2023-05-07T11:38:25;6.53;;;4.20;;
76208;SDS011;64990;51.698;-0.292;2023-05-07T11:40:52;5.32;;;3.90;;
76208;SDS011;64990;51.698;-0.292;2023-05-07T11:43:18;4.32;;;3.35;;
76208;SDS011;64990;51.698;-0.292;2023-05-07T11:45:45;5.60;;;3.85;;
76208;SDS011;64990;51.698;-0.292;2023-05-07T11:48:12;8.63;;;3.25;;
76208;SDS011;64990;51.698;-0.292;2023-05-07T11:50:51;17.58;;;3.63;;
76208;SDS011;64990;51.698;-0.292;2023-05-07T11:53:20;3.50;;;2.92;;
76208;SDS011;64990;51.698;-0.292;2023-05-07T11:55:56;5.35;;;3.88;;
76208;SDS011;64990;51.698;-0.292;2023-05-07T11:58:24;6.32;;;3.63;;
76208;SDS011;64990;51.698;-0.292;2023-05-07T12:00:53;8.90;;;2.67;;
76208;SDS011;64990;51.698;-0.292;2023-05-07T12:03:20;10.73;;;3.50;;
76208;SDS011;64990;51.698;-0.292;2023-05-07T12:05:46;3.15;;;2.75;;
76208;SDS011;64990;51.698;-0.292;2023-05-07T12:08:15;14.93;;;2.60;;
76208;SDS011;64990;51.698;-0.292;2023-05-07T12:10:42;11.30;;;3.05;;
76208;SDS011;64990;51.698;-0.292;2023-05-07T12:13:13;6.35;;;3.25;;
76208;SDS011;64990;51.698;-0.292;2023-05-07T12:15:40;5.70;;;2.58;;
76208;SDS011;64990;51.698;-0.292;2023-05-07T12:18:06;3.83;;;3.17;;
76208;SDS011;64990;51.698;-0.292;2023-05-07T12:20:33;3.80;;;2.28;;
76208;SDS011;64990;51.698;-0.292;2023-05-07T12:22:59;3.63;;;2.53;;
76208;SDS011;64990;51.698;-0.292;2023-05-07T12:25:25;3.42;;;2.75;;
76208;SDS011;64990;51.698;-0.292;2023-05-07T12:27:52;3.00;;;2.70;;
76208;SDS011;64990;51.698;-0.292;2023-05-07T12:30:18;4.93;;;3.03;;
76208;SDS011;64990;51.698;-0.292;2023-05-07T12:32:44;12.60;;;3.33;;
76208;SDS011;64990;51.698;-0.292;2023-05-07T12:35:11;13.10;;;3.15;;
76208;SDS011;64990;51.698;-0.292;2023-05-07T12:37:37;17.38;;;2.10;;
76208;SDS011;64990;51.698;-0.292;2023-05-07T12:40:04;3.67;;;2.70;;
76208;SDS011;64990;51.698;-0.292;2023-05-07T12:42:37;6.50;;;2.60;;
76208;SDS011;64990;51.698;-0.292;2023-05-07T12:45:13;2.25;;;1.85;;
76208;SDS011;64990;51.698;-0.292;2023-05-07T12:47:44;3.20;;;1.90;;
76208;SDS011;64990;51.698;-0.292;2023-05-07T12:50:10;2.55;;;1.75;;
76208;SDS011;64990;51.698;-0.292;2023-05-07T12:52:37;25.60;;;3.33;;
76208;SDS011;64990;51.698;-0.292;2023-05-07T12:55:06;6.72;;;2.28;;
76208;SDS011;64990;51.698;-0.292;2023-05-07T12:57:39;3.38;;;2.38;;
76208;SDS011;64990;51.698;-0.292;2023-05-07T13:00:06;5.45;;;1.42;;
76208;SDS011;64990;51.698;-0.292;2023-05-07T13:02:38;3.08;;;1.58;;
76208;SDS011;64990;51.698;-0.292;2023-05-07T13:05:05;5.63;;;0.98;;
76208;SDS011;64990;51.698;-0.292;2023-05-07T13:07:31;2.15;;;1.23;;
76208;SDS011;64990;51.698;-0.292;2023-05-07T13:09:57;1.95;;;0.82;;
76208;SDS011;64990;51.698;-0.292;2023-05-07T13:12:23;2.35;;;1.25;;
76208;SDS011;64990;51.698;-0.292;2023-05-07T13:14:49;0.98;;;0.65;;
76208;SDS011;64990;51.698;-0.292;2023-05-07T13:17:15;6.45;;;1.45;;
76208;SDS011;64990;51.698;-0.292;2023-05-07T13:19:41;2.42;;;1.23;;
76208;SDS011;64990;51.698;-0.292;2023-05-07T13:22:07;2.88;;;1.20;;
76208;SDS011;64990;51.698;-0.292;2023-05-07T13:24:33;1.38;;;0.93;;
76208;SDS011;64990;51.698;-0.292;2023-05-07T13:26:59;0.90;;;0.82;;
76208;SDS011;64990;51.698;-0.292;2023-05-07T13:29:25;8.70;;;1.35;;
76208;SDS011;64990;51.698;-0.292;2023-05-07T13:31:56;7.25;;;0.80;;
76208;SDS011;64990;51.698;-0.292;2023-05-07T13:34:22;1.33;;;1.23;;
76208;SDS011;64990;51.698;-0.292;2023-05-07T13:36:48;1.75;;;1.42;;
76208;SDS011;64990;51.698;-0.292;2023-05-07T13:39:15;6.50;;;1.98;;
76208;SDS011;64990;51.698;-0.292;2023-05-07T13:41:41;2.22;;;1.35;;
76208;SDS011;64990;51.698;-0.292;2023-05-07T13:44:07;2.75;;;1.88;;
76208;SDS011;64990;51.698;-0.292;2023-05-07T13:46:33;2.30;;;1.38;;
76208;SDS011;64990;51.698;-0.292;2023-05-07T13:48:59;2.00;;;1.45;;
76208;SDS011;64990;51.698;-0.292;2023-05-07T13:51:25;4.40;;;1.10;;
76208;SDS011;64990;51.698;-0.292;2023-05-07T13:53:51;13.65;;;1.23;;
76208;SDS011;64990;51.698;-0.292;2023-05-07T13:56:20;1.05;;;0.93;;
76208;SDS011;64990;51.698;-0.292;2023-05-07T13:58:46;2.17;;;1.60;;
76208;SDS011;64990;51.698;-0.292;2023-05-07T14:01:12;3.50;;;0.90;;
76208;SDS011;64990;51.698;-0.292;2023-05-07T14:03:38;2.42;;;1.20;;
76208;SDS011;64990;51.698;-0.292;2023-05-07T14:06:04;4.78;;;2.25;;
76208;SDS011;64990;51.698;-0.292;2023-05-07T14:08:31;4.53;;;1.40;;
76208;SDS011;64990;51.698;-0.292;2023-05-07T14:10:56;4.45;;;1.17;;
76208;SDS011;64990;51.698;-0.292;2023-05-07T14:13:23;5.75;;;1.05;;
76208;SDS011;64990;51.698;-0.292;2023-05-07T14:15:49;1.30;;;0.90;;
76208;SDS011;64990;51.698;-0.292;2023-05-07T14:18:15;8.35;;;1.15;;
76208;SDS011;64990;51.698;-0.292;2023-05-07T14:20:41;3.42;;;1.40;;
76208;SDS011;64990;51.698;-0.292;2023-05-07T14:23:12;6.00;;;1.50;;
76208;SDS011;64990;51.698;-0.292;2023-05-07T14:25:39;1.73;;;1.40;;
76208;SDS011;64990;51.698;-0.292;2023-05-07T14:28:05;2.35;;;1.65;;
76208;SDS011;64990;51.698;-0.292;2023-05-07T14:30:31;2.00;;;1.38;;